Time;durP1;ratioP1;P1;durP2;ratioP2;P2;SDS_P1;SDS_P2;PMS_P1;PMS_P2;Temp;Humidity;BMP_temperature;BMP_pressure;BME280_temperature;BME280_humidity;BME280_pressure;Samples;Min_cycle;Max_cycle;Signal;HPM_P1;HPM_P2
2021/03/14 00:02:28;;;;;;;31.42;14.30;;;-0.50;92.10;;;;;;5033681;28;20104;-79
2021/03/14 00:04:53;;;;;;;35.25;16.58;;;-0.50;92.10;;;;;;5016654;28;20021;-78
2021/03/14 00:07:19;;;;;;;35.72;19.15;;;-0.60;92.10;;;;;;5032510;28;20084;-79
2021/03/14 00:09:45;;;;;;;30.80;16.70;;;-0.50;92.10;;;;;;5034239;28;20104;-79
2021/03/14 00:12:11;;;;;;;31.95;16.02;;;-0.50;92.10;;;;;;5035443;28;20029;-78
2021/03/14 00:14:36;;;;;;;33.20;17.77;;;-0.50;92.30;;;;;;5042803;28;20057;-79
2021/03/14 00:17:02;;;;;;;32.97;18.92;;;-0.50;92.00;;;;;;5045221;28;20424;-79
2021/03/14 00:19:28;;;;;;;33.10;17.30;;;-0.50;92.00;;;;;;5032559;28;20687;-79
2021/03/14 00:21:54;;;;;;;32.10;17.17;;;-0.50;92.00;;;;;;5032614;28;20438;-78
2021/03/14 00:24:20;;;;;;;36.05;19.25;;;-0.50;91.90;;;;;;5032364;28;20442;-79
2021/03/14 00:26:45;;;;;;;33.83;18.27;;;-0.50;92.00;;;;;;5043094;28;20033;-79
2021/03/14 00:29:11;;;;;;;25.60;17.30;;;-0.50;92.00;;;;;;5047821;28;20518;-79
2021/03/14 00:31:37;;;;;;;31.00;17.08;;;-0.60;91.90;;;;;;5041724;28;20535;-79
2021/03/14 00:34:03;;;;;;;28.33;15.98;;;-0.60;92.00;;;;;;5045672;28;20506;-79
2021/03/14 00:36:29;;;;;;;33.00;17.52;;;-0.50;92.10;;;;;;5049286;28;20444;-79
2021/03/14 00:38:55;;;;;;;33.85;18.70;;;-0.50;92.10;;;;;;5047227;28;20018;-78
2021/03/14 00:41:21;;;;;;;35.90;20.20;;;-0.50;92.00;;;;;;5047830;28;20021;-78
2021/03/14 00:43:47;;;;;;;33.85;16.38;;;-0.50;92.00;;;;;;5049239;28;20095;-79
2021/03/14 00:46:12;;;;;;;24.20;14.13;;;-0.50;91.90;;;;;;5045881;28;20234;-77
2021/03/14 00:48:38;;;;;;;32.17;16.80;;;-0.60;91.80;;;;;;5049157;28;20040;-78
2021/03/14 00:51:04;;;;;;;29.65;16.70;;;-0.60;92.00;;;;;;5045807;28;20389;-79
2021/03/14 00:53:30;;;;;;;31.25;17.45;;;-0.70;92.30;;;;;;5032622;28;20101;-78
2021/03/14 00:56:04;;;;;;;34.05;16.45;;;-0.70;92.10;;;;;;5032433;28;20444;-77
2021/03/14 00:58:29;;;;;;;29.42;16.58;;;-0.60;92.20;;;;;;5028500;28;20025;-78
2021/03/14 01:00:55;;;;;;;26.08;16.77;;;-0.70;92.10;;;;;;5021781;28;20038;-76
2021/03/14 01:03:22;;;;;;;27.30;13.67;;;-0.70;92.10;;;;;;5037932;28;20049;-77
2021/03/14 01:05:48;;;;;;;28.95;14.75;;;-0.70;92.10;;;;;;5047800;28;20052;-78
2021/03/14 01:08:17;;;;;;;30.38;16.30;;;-0.70;92.20;;;;;;5039908;28;20053;-77
2021/03/14 01:10:43;;;;;;;28.65;17.02;;;-0.70;92.20;;;;;;5037021;28;20017;-77
2021/03/14 01:13:09;;;;;;;22.13;11.83;;;-0.70;92.30;;;;;;5018853;28;20037;-77
2021/03/14 01:15:35;;;;;;;21.73;11.27;;;-0.80;92.10;;;;;;5036401;28;20071;-77
2021/03/14 01:18:01;;;;;;;27.42;15.65;;;-0.70;92.20;;;;;;5036336;28;20033;-78
2021/03/14 01:20:27;;;;;;;22.83;14.02;;;-0.70;92.30;;;;;;5018297;28;20466;-77
2021/03/14 01:22:52;;;;;;;33.30;15.23;;;-0.70;92.30;;;;;;5036078;28;20075;-79
2021/03/14 01:25:21;;;;;;;27.33;18.13;;;-0.70;92.40;;;;;;5035921;28;20018;-77
2021/03/14 01:27:49;;;;;;;31.30;16.77;;;-0.70;92.40;;;;;;5035927;28;20385;-77
2021/03/14 01:30:18;;;;;;;33.60;17.20;;;-0.70;92.40;;;;;;5018019;28;20026;-77
2021/03/14 01:32:45;;;;;;;27.20;18.60;;;-0.70;92.40;;;;;;5035722;28;20025;-77
2021/03/14 01:35:12;;;;;;;30.63;17.45;;;-0.70;92.40;;;;;;5035914;28;20164;-79
2021/03/14 01:37:38;;;;;;;28.05;16.42;;;-0.60;92.40;;;;;;5035566;28;20056;-76
2021/03/14 01:40:07;;;;;;;24.75;15.20;;;-0.50;92.30;;;;;;5017867;28;20475;-77
2021/03/14 01:42:33;;;;;;;29.85;16.90;;;-0.50;92.10;;;;;;5035631;28;20036;-76
2021/03/14 01:44:59;;;;;;;28.75;16.23;;;-0.40;92.10;;;;;;5035514;28;20032;-77
2021/03/14 01:47:33;;;;;;;29.63;17.02;;;-0.40;92.10;;;;;;5035310;28;20033;-77
2021/03/14 01:49:59;;;;;;;27.88;14.15;;;-0.40;92.00;;;;;;5035540;28;20471;-77
2021/03/14 01:52:26;;;;;;;23.25;13.85;;;-0.40;91.80;;;;;;5035334;28;20112;-77
2021/03/14 01:54:52;;;;;;;28.20;14.03;;;-0.50;91.70;;;;;;5035505;28;20104;-77
2021/03/14 01:57:18;;;;;;;26.60;13.93;;;-0.50;91.90;;;;;;5017888;28;20271;-77
2021/03/14 01:59:44;;;;;;;22.17;12.70;;;-0.50;91.80;;;;;;5040248;28;20133;-78
2021/03/14 02:02:10;;;;;;;23.38;13.73;;;-0.50;91.80;;;;;;5055885;28;20017;-77
2021/03/14 02:04:36;;;;;;;21.02;13.07;;;-0.50;91.80;;;;;;5037975;28;20032;-77
2021/03/14 02:07:02;;;;;;;26.23;14.50;;;-0.50;91.60;;;;;;5055800;28;20132;-77
2021/03/14 02:09:28;;;;;;;24.35;13.43;;;-0.60;91.80;;;;;;5055930;28;20474;-77
2021/03/14 02:11:59;;;;;;;24.65;14.82;;;-0.50;91.90;;;;;;5054141;28;20066;-77
2021/03/14 02:14:26;;;;;;;23.27;13.70;;;-0.50;91.80;;;;;;5055414;28;20099;-77
2021/03/14 02:16:52;;;;;;;22.90;11.63;;;-0.50;91.90;;;;;;5055433;28;20021;-77
2021/03/14 02:19:28;;;;;;;22.33;14.10;;;-0.50;91.70;;;;;;5047324;28;20025;-76
2021/03/14 02:21:58;;;;;;;25.35;13.27;;;-0.50;91.70;;;;;;5050726;28;20086;-77
2021/03/14 02:24:28;;;;;;;27.65;12.88;;;-0.50;91.70;;;;;;5055039;28;20132;-78
2021/03/14 02:27:05;;;;;;;24.30;14.07;;;-0.50;91.80;;;;;;5055018;28;20029;-78
2021/03/14 02:29:34;;;;;;;20.17;9.23;;;-0.50;91.90;;;;;;5055403;28;20114;-77
2021/03/14 02:32:01;;;;;;;24.83;13.75;;;-0.50;91.70;;;;;;5055177;28;20032;-77
2021/03/14 02:34:32;;;;;;;22.25;12.68;;;-0.60;91.80;;;;;;5052471;28;20029;-77
2021/03/14 02:36:59;;;;;;;23.65;12.95;;;-0.60;91.90;;;;;;5054575;28;20021;-78
2021/03/14 02:39:26;;;;;;;19.90;13.95;;;-0.60;92.00;;;;;;5054599;28;20044;-78
2021/03/14 02:41:54;;;;;;;22.52;13.38;;;-0.60;92.00;;;;;;5054811;28;20037;-78
2021/03/14 02:44:31;;;;;;;18.10;12.23;;;-0.50;92.00;;;;;;5054754;28;20024;-78
2021/03/14 02:46:58;;;;;;;25.73;13.38;;;-0.60;92.00;;;;;;5055614;28;20033;-79
2021/03/14 02:49:24;;;;;;;22.88;11.43;;;-0.60;92.00;;;;;;5059275;28;20074;-78
2021/03/14 02:51:50;;;;;;;21.05;12.57;;;-0.60;92.00;;;;;;5051807;28;20032;-79
2021/03/14 02:54:17;;;;;;;26.38;14.20;;;-0.60;92.10;;;;;;5065547;28;20017;-78
2021/03/14 02:56:48;;;;;;;28.75;15.82;;;-0.60;92.10;;;;;;5054836;28;20108;-77
2021/03/14 02:59:20;;;;;;;24.70;14.00;;;-0.60;92.20;;;;;;5054331;28;20416;-77
2021/03/14 03:01:48;;;;;;;25.23;14.00;;;-0.60;92.20;;;;;;5033542;28;20049;-79
2021/03/14 03:04:21;;;;;;;28.58;16.88;;;-0.60;92.30;;;;;;5034165;28;20105;-77
2021/03/14 03:06:48;;;;;;;31.13;17.85;;;-0.60;92.40;;;;;;5033739;28;20021;-79
2021/03/14 03:09:15;;;;;;;25.95;16.10;;;-0.60;92.40;;;;;;5034249;28;20029;-80
2021/03/14 03:11:42;;;;;;;28.30;15.18;;;-0.50;92.40;;;;;;5034927;28;20390;-79
2021/03/14 03:14:13;;;;;;;30.10;17.20;;;-0.50;92.40;;;;;;5046320;28;20014;-78
2021/03/14 03:16:45;;;;;;;26.65;14.15;;;-0.50;92.40;;;;;;5033844;28;20369;-78
2021/03/14 03:19:12;;;;;;;27.17;15.93;;;-0.50;92.30;;;;;;5033957;28;20374;-78
2021/03/14 03:21:38;;;;;;;28.35;15.77;;;-0.40;92.40;;;;;;5033886;28;20017;-79
2021/03/14 03:24:06;;;;;;;30.20;16.10;;;-0.50;92.30;;;;;;5029260;28;20121;-79
2021/03/14 03:26:31;;;;;;;;;;;-0.50;92.50;;;;;;5027694;28;20027;-80
2021/03/14 03:28:57;;;;;;;31.38;17.02;;;-0.40;92.50;;;;;;5021515;28;20007;-78
2021/03/14 03:31:23;;;;;;;31.17;17.05;;;-0.40;92.50;;;;;;5038292;28;20067;-78
2021/03/14 03:33:49;;;;;;;31.48;18.02;;;-0.50;92.70;;;;;;5033452;28;20061;-77
2021/03/14 03:36:15;;;;;;;34.83;19.50;;;-0.50;92.90;;;;;;5033428;28;20013;-78
2021/03/14 03:38:41;;;;;;;33.90;17.80;;;-0.50;93.10;;;;;;5033346;28;20037;-77
2021/03/14 03:41:06;;;;;;;32.33;17.38;;;-0.50;93.50;;;;;;5033244;28;20331;-78
2021/03/14 03:43:37;;;;;;;42.17;20.90;;;-0.50;93.70;;;;;;5034252;28;20108;-78
2021/03/14 03:46:06;;;;;;;29.55;17.33;;;-0.40;93.50;;;;;;5033231;28;20021;-77
2021/03/14 03:48:49;;;;;;;40.13;20.92;;;-0.40;93.40;;;;;;5033287;28;20060;-79
2021/03/14 03:51:19;;;;;;;31.77;19.88;;;-0.40;93.50;;;;;;5032922;28;20017;-77
2021/03/14 03:53:46;;;;;;;34.92;18.88;;;-0.40;93.50;;;;;;5033168;28;20017;-78
2021/03/14 03:56:14;;;;;;;36.83;18.83;;;-0.40;93.60;;;;;;5029308;28;20056;-78
2021/03/14 03:58:40;;;;;;;;;;;-0.40;93.60;;;;;;5047539;28;20021;-78
2021/03/14 04:01:08;;;;;;;39.22;20.48;;;-0.40;93.50;;;;;;5027809;28;20425;-78
2021/03/14 04:03:37;;;;;;;30.75;18.48;;;-0.50;93.60;;;;;;5032831;28;20036;-77
2021/03/14 04:06:05;;;;;;;32.97;18.83;;;-0.60;93.90;;;;;;5033239;28;20021;-78
2021/03/14 04:08:33;;;;;;;34.80;19.27;;;-0.50;94.00;;;;;;5032675;28;20064;-77
2021/03/14 04:10:59;;;;;;;;;;;-0.50;94.10;;;;;;5033335;28;20025;-77
2021/03/14 04:13:27;;;;;;;31.40;18.75;;;-0.60;94.00;;;;;;5032438;28;19909;-80
2021/03/14 04:15:53;;;;;;;34.97;17.85;;;-0.60;94.20;;;;;;5032475;28;20017;-78
2021/03/14 04:18:20;;;;;;;31.00;17.58;;;-0.50;94.30;;;;;;5031586;28;20144;-78
2021/03/14 04:20:48;;;;;;;32.95;18.90;;;-0.50;94.40;;;;;;5032827;28;20032;-79
2021/03/14 04:23:15;;;;;;;;;;;-0.50;94.50;;;;;;5033254;28;20057;-77
2021/03/14 04:25:44;;;;;;;32.45;17.75;;;-0.50;94.30;;;;;;5037142;28;19905;-78
2021/03/14 04:28:10;;;;;;;32.08;15.93;;;-0.50;94.40;;;;;;5052565;28;20457;-79
2021/03/14 04:30:37;;;;;;;36.97;18.08;;;-0.50;94.60;;;;;;5029765;28;20025;-78
2021/03/14 04:33:04;;;;;;;33.78;18.95;;;-0.50;94.70;;;;;;5032596;28;20462;-76
2021/03/14 04:35:32;;;;;;;36.58;16.23;;;-0.50;94.90;;;;;;5031721;28;20475;-78
2021/03/14 04:37:58;;;;;;;36.00;17.80;;;-0.50;95.00;;;;;;5033075;28;20033;-77
2021/03/14 04:40:25;;;;;;;35.53;18.15;;;-0.60;95.00;;;;;;5033801;28;20017;-76
2021/03/14 04:42:53;;;;;;;48.10;22.02;;;-0.50;95.10;;;;;;5053360;28;20473;-78
2021/03/14 04:45:23;;;;;;;33.55;18.02;;;-0.50;95.10;;;;;;5042080;28;20037;-77
2021/03/14 04:47:50;;;;;;;33.05;16.63;;;-0.50;95.20;;;;;;5032324;28;20040;-77
2021/03/14 04:50:20;;;;;;;31.85;19.77;;;-0.50;95.10;;;;;;5032565;28;20378;-77
2021/03/14 04:52:49;;;;;;;29.75;16.80;;;-0.50;95.20;;;;;;5032452;28;20467;-80
2021/03/14 04:55:17;;;;;;;35.20;18.30;;;-0.40;95.20;;;;;;5032409;28;20017;-78
2021/03/14 04:57:44;;;;;;;38.05;18.80;;;-0.40;95.10;;;;;;5032550;28;20116;-78
2021/03/14 05:00:12;;;;;;;37.67;20.23;;;-0.50;95.30;;;;;;5029491;28;20042;-78
2021/03/14 05:02:41;;;;;;;38.35;18.33;;;-0.40;95.10;;;;;;5038561;28;20033;-79
2021/03/14 05:05:09;;;;;;;37.17;19.67;;;-0.40;95.20;;;;;;5024191;28;20025;-79
2021/03/14 05:07:36;;;;;;;36.97;18.98;;;-0.30;95.10;;;;;;5041288;28;20036;-77
2021/03/14 05:10:06;;;;;;;30.10;20.10;;;-0.30;95.00;;;;;;5040271;28;20017;-77
2021/03/14 05:12:32;;;;;;;33.45;17.30;;;-0.20;95.10;;;;;;5036286;28;20049;-77
2021/03/14 05:14:59;;;;;;;35.20;19.48;;;-0.30;94.80;;;;;;5031730;28;20026;-77
2021/03/14 05:17:25;;;;;;;34.17;18.23;;;-0.30;94.80;;;;;;5041395;28;20039;-77
2021/03/14 05:19:51;;;;;;;32.42;18.25;;;-0.30;94.80;;;;;;5037148;28;20029;-77
2021/03/14 05:22:21;;;;;;;23.25;12.48;;;-0.30;94.70;;;;;;5041246;28;20036;-78
2021/03/14 05:24:48;;;;;;;35.30;18.23;;;-0.30;94.70;;;;;;5010456;28;20083;-78
2021/03/14 05:27:14;;;;;;;;;;;-0.20;94.80;;;;;;5040550;28;20092;-77
2021/03/14 05:29:45;;;;;;;33.78;18.27;;;-0.20;94.70;;;;;;5038008;28;20001;-78
2021/03/14 05:32:11;;;;;;;30.67;15.13;;;-0.20;94.70;;;;;;5033859;28;20491;-79
2021/03/14 05:34:37;;;;;;;34.63;17.80;;;-0.20;94.70;;;;;;5039399;28;20032;-80
2021/03/14 05:37:03;;;;;;;33.40;18.70;;;-0.20;94.70;;;;;;5036989;28;20021;-77
2021/03/14 05:39:29;;;;;;;31.67;17.92;;;-0.20;94.70;;;;;;5041165;28;20025;-78
2021/03/14 05:41:55;;;;;;;32.95;15.60;;;-0.20;94.50;;;;;;5042644;28;20496;-77
2021/03/14 05:44:21;;;;;;;25.23;15.27;;;-0.10;94.50;;;;;;5047171;28;20146;-77
2021/03/14 05:46:49;;;;;;;32.13;15.68;;;-0.10;94.40;;;;;;5050962;28;20025;-79
2021/03/14 05:49:15;;;;;;;25.23;12.10;;;0.00;94.50;;;;;;5032233;28;20025;-77
2021/03/14 05:51:43;;;;;;;30.88;15.85;;;0.00;94.30;;;;;;5047982;28;20386;-79
2021/03/14 05:54:14;;;;;;;28.85;15.32;;;0.00;94.30;;;;;;5017836;28;20021;-76
2021/03/14 05:56:48;;;;;;;26.65;15.30;;;0.00;94.30;;;;;;5035443;28;20013;-77
2021/03/14 05:59:16;;;;;;;27.58;14.98;;;0.00;94.10;;;;;;5018967;28;20029;-79
2021/03/14 06:01:48;;;;;;;30.13;15.45;;;0.00;94.00;;;;;;5033795;28;20026;-78
2021/03/14 06:04:16;;;;;;;28.55;15.77;;;0.00;94.00;;;;;;5027108;28;20105;-78
2021/03/14 06:06:41;;;;;;;;;;;0.00;94.10;;;;;;5035259;28;20459;-81
2021/03/14 06:09:08;;;;;;;27.00;15.70;;;0.10;94.00;;;;;;5019495;28;19948;-80
2021/03/14 06:11:34;;;;;;;23.75;14.02;;;0.10;94.00;;;;;;5018957;28;20707;-77
2021/03/14 06:14:01;;;;;;;28.02;16.50;;;0.10;94.10;;;;;;5021153;28;20018;-78
2021/03/14 06:16:27;;;;;;;33.00;16.57;;;0.10;94.20;;;;;;5027705;28;20371;-78
2021/03/14 06:18:53;;;;;;;29.27;16.30;;;0.20;94.20;;;;;;5015590;28;20037;-83
2021/03/14 06:21:29;;;;;;;29.27;17.83;;;0.20;94.20;;;;;;5029280;28;20018;-84
2021/03/14 06:23:57;;;;;;;20.00;11.27;;;0.20;94.10;;;;;;5034164;28;20479;-81
2021/03/14 06:26:42;;;;;;;30.55;15.85;;;0.20;94.00;;;;;;5035922;28;20030;-80
2021/03/14 06:29:28;;;;;;;36.60;19.35;;;0.20;94.10;;;;;;5035181;28;20038;-83
2021/03/14 06:31:59;;;;;;;29.98;14.75;;;0.20;94.20;;;;;;5040197;28;20056;-79
2021/03/14 06:34:39;;;;;;;33.95;17.13;;;0.20;94.10;;;;;;5046234;28;20051;-81
2021/03/14 06:37:07;;;;;;;37.42;16.38;;;0.20;94.00;;;;;;5036123;28;20022;-80
2021/03/14 06:39:36;;;;;;;31.65;14.20;;;0.30;94.10;;;;;;5035227;28;20390;-83
2021/03/14 06:42:02;;;;;;;24.75;13.35;;;0.30;94.00;;;;;;5035260;28;20064;-81
2021/03/14 06:44:36;;;;;;;26.90;15.88;;;0.30;94.00;;;;;;5034224;28;20421;-77
2021/03/14 06:47:04;;;;;;;30.95;14.27;;;0.30;94.00;;;;;;5027481;28;20138;-77
2021/03/14 06:49:37;;;;;;;29.38;17.75;;;0.30;93.90;;;;;;5030100;28;20022;-78
2021/03/14 06:52:04;;;;;;;29.05;16.58;;;0.40;94.00;;;;;;5027094;28;20091;-77
2021/03/14 06:54:42;;;;;;;26.03;13.40;;;0.40;94.00;;;;;;5032719;28;20018;-78
2021/03/14 06:57:17;;;;;;;26.40;16.33;;;0.40;93.90;;;;;;5010310;28;20267;-78
2021/03/14 06:59:58;;;;;;;35.85;18.23;;;0.40;93.80;;;;;;5036780;28;20037;-78
2021/03/14 07:02:31;;;;;;;35.85;20.40;;;0.50;93.90;;;;;;5038784;28;20080;-76
2021/03/14 07:05:01;;;;;;;21.83;14.88;;;0.50;93.90;;;;;;5033706;28;20022;-77
2021/03/14 07:07:30;;;;;;;27.50;16.25;;;0.60;93.80;;;;;;5018701;28;20537;-75
2021/03/14 07:09:58;;;;;;;19.00;9.38;;;0.60;93.80;;;;;;5025458;28;20129;-77
2021/03/14 07:12:30;;;;;;;33.90;15.98;;;0.60;93.70;;;;;;5047955;28;20031;-77
2021/03/14 07:14:56;;;;;;;38.92;15.98;;;0.60;93.80;;;;;;5041477;28;20048;-77
2021/03/14 07:17:29;;;;;;;35.72;17.13;;;0.70;93.70;;;;;;5023770;28;20048;-75
2021/03/14 07:19:56;;;;;;;31.23;16.38;;;0.70;93.90;;;;;;5041489;28;20414;-77
2021/03/14 07:22:23;;;;;;;35.45;17.05;;;0.80;93.80;;;;;;5043950;28;20074;-76
2021/03/14 07:24:52;;;;;;;34.60;17.45;;;0.80;93.90;;;;;;5029440;28;20072;-75
2021/03/14 07:27:22;;;;;;;30.88;15.80;;;0.90;94.00;;;;;;5051062;28;20040;-77
2021/03/14 07:29:51;;;;;;;26.73;14.02;;;1.00;93.80;;;;;;5053122;28;20052;-78
2021/03/14 07:32:17;;;;;;;34.28;19.20;;;1.00;93.50;;;;;;5052592;28;20013;-79
2021/03/14 07:34:43;;;;;;;37.67;15.23;;;1.00;93.70;;;;;;5037811;28;20026;-80
2021/03/14 07:37:10;;;;;;;36.05;17.50;;;1.10;93.40;;;;;;5042143;28;20529;-77
2021/03/14 07:39:36;;;;;;;34.85;18.02;;;1.10;93.60;;;;;;5050235;28;20021;-77
2021/03/14 07:42:02;;;;;;;33.15;17.23;;;1.10;93.40;;;;;;5048325;28;20028;-77
2021/03/14 07:44:28;;;;;;;33.88;17.42;;;1.10;93.40;;;;;;5049879;28;20377;-85
2021/03/14 07:46:55;;;;;;;35.15;18.63;;;1.20;93.30;;;;;;5020960;28;20026;-78
2021/03/14 07:49:24;;;;;;;32.83;16.45;;;1.10;92.90;;;;;;5046662;28;20020;-76
2021/03/14 07:51:52;;;;;;;33.40;17.35;;;1.20;93.20;;;;;;5043415;28;20379;-78
2021/03/14 07:54:39;;;;;;;23.92;13.18;;;1.20;93.00;;;;;;5041427;28;20430;-88
2021/03/14 07:57:06;;;;;;;38.28;18.30;;;1.20;93.10;;;;;;5022778;28;20055;-83
2021/03/14 07:59:32;;;;;;;36.95;19.60;;;1.20;93.00;;;;;;5045560;28;20045;-77
2021/03/14 08:02:17;;;;;;;37.50;19.77;;;1.30;93.10;;;;;;5039440;28;20033;-74
2021/03/14 08:05:15;;;;;;;33.03;17.70;;;1.30;93.00;;;;;;5046759;28;20080;-77
2021/03/14 08:07:42;;;;;;;33.38;18.83;;;1.30;92.90;;;;;;5003818;28;20052;-77
2021/03/14 08:10:09;;;;;;;32.22;17.20;;;1.30;93.00;;;;;;5036638;28;20045;-79
2021/03/14 08:12:42;;;;;;;39.30;18.48;;;1.40;92.80;;;;;;5042251;28;20044;-81
2021/03/14 08:15:28;;;;;;;22.10;13.75;;;1.30;92.70;;;;;;5043535;28;20146;-78
2021/03/14 08:17:58;;;;;;;31.63;15.23;;;1.30;92.70;;;;;;5037673;28;20457;-78
2021/03/14 08:20:45;;;;;;;34.13;17.88;;;1.30;92.80;;;;;;5049926;28;20045;-75
2021/03/14 08:23:15;;;;;;;34.72;16.65;;;1.40;92.90;;;;;;5035986;28;20017;-75
2021/03/14 08:25:51;;;;;;;37.47;19.58;;;1.40;92.80;;;;;;5050649;28;20025;-77
2021/03/14 08:28:23;;;;;;;36.95;20.02;;;1.40;92.70;;;;;;5035646;28;20053;-76
2021/03/14 08:31:03;;;;;;;40.17;20.38;;;1.40;92.70;;;;;;5038588;28;20021;-77
2021/03/14 08:33:30;;;;;;;38.30;19.08;;;1.40;92.90;;;;;;5014489;28;20052;-76
2021/03/14 08:36:00;;;;;;;35.08;18.23;;;1.40;92.70;;;;;;5035277;28;20108;-81
2021/03/14 08:38:28;;;;;;;38.58;20.70;;;1.40;92.60;;;;;;5035542;28;20040;-78
2021/03/14 08:41:40;;;;;;;33.65;17.50;;;1.50;92.80;;;;;;5038350;28;20028;-77
2021/03/14 08:44:07;;;;;;;39.55;20.45;;;1.60;92.60;;;;;;4932971;29;20051;-78
2021/03/14 08:46:53;;;;;;;36.50;20.25;;;1.60;92.50;;;;;;4933097;29;20040;-78
2021/03/14 08:49:21;;;;;;;42.22;19.60;;;1.80;92.50;;;;;;4925883;29;20087;-79
2021/03/14 08:51:48;;;;;;;36.92;18.50;;;1.80;92.10;;;;;;4916605;29;20041;-77
2021/03/14 08:54:15;;;;;;;32.87;19.53;;;1.80;92.00;;;;;;4934488;29;20555;-75
2021/03/14 08:56:41;;;;;;;34.33;17.70;;;1.80;91.90;;;;;;4933675;29;20035;-76
2021/03/14 08:59:11;;;;;;;39.50;19.70;;;1.80;91.90;;;;;;4933153;29;20043;-79
2021/03/14 09:01:41;;;;;;;38.95;18.23;;;1.80;92.10;;;;;;4933519;29;20086;-77
2021/03/14 09:04:17;;;;;;;35.60;16.95;;;1.90;91.90;;;;;;4933184;29;20047;-76
2021/03/14 09:06:43;;;;;;;40.47;19.92;;;1.80;91.70;;;;;;4932957;29;20032;-77
2021/03/14 09:09:12;;;;;;;35.95;18.60;;;1.70;91.80;;;;;;4933070;29;20039;-79
2021/03/14 09:11:50;;;;;;;36.45;19.50;;;1.80;92.00;;;;;;4933157;29;20046;-80
2021/03/14 09:14:38;;;;;;;32.67;18.40;;;1.70;91.90;;;;;;4933532;29;20118;-79
2021/03/14 09:17:15;;;;;;;37.22;21.25;;;1.70;92.00;;;;;;4948769;28;20060;-76
2021/03/14 09:19:45;;;;;;;37.50;17.02;;;1.80;92.30;;;;;;5032674;28;20033;-78
2021/03/14 09:22:16;;;;;;;40.00;18.38;;;1.90;92.10;;;;;;5035260;28;20378;-76
2021/03/14 09:24:47;;;;;;;46.05;21.23;;;1.90;91.90;;;;;;5036058;28;20124;-78
2021/03/14 09:27:30;;;;;;;39.58;21.35;;;1.90;91.90;;;;;;5018098;28;20022;-78
2021/03/14 09:29:58;;;;;;;48.35;22.15;;;1.90;92.00;;;;;;5036008;28;20026;-78
2021/03/14 09:32:28;;;;;;;51.00;25.55;;;1.90;91.80;;;;;;5035659;28;20021;-77
2021/03/14 09:35:22;;;;;;;42.03;21.38;;;1.90;91.90;;;;;;5035386;28;20040;-79
2021/03/14 09:37:58;;;;;;;38.08;21.17;;;1.90;91.90;;;;;;5023167;28;20030;-78
2021/03/14 09:40:39;;;;;;;46.13;22.05;;;1.80;91.90;;;;;;5035848;28;20018;-78
2021/03/14 09:43:20;;;;;;;36.15;18.98;;;1.90;92.10;;;;;;5036005;28;20022;-77
2021/03/14 09:45:48;;;;;;;33.72;18.35;;;2.00;92.00;;;;;;5018086;28;20033;-78
2021/03/14 09:48:17;;;;;;;40.15;21.80;;;2.00;91.90;;;;;;5036388;28;20128;-78
2021/03/14 09:51:00;;;;;;;46.15;19.70;;;2.00;91.90;;;;;;5036321;28;20037;-79
2021/03/14 09:53:28;;;;;;;32.97;16.45;;;2.10;91.90;;;;;;5035844;28;20114;-79
2021/03/14 09:55:58;;;;;;;37.05;21.90;;;2.20;91.70;;;;;;5036925;28;20017;-78
2021/03/14 09:58:25;;;;;;;36.72;18.70;;;2.10;91.60;;;;;;5018434;28;20025;-76
2021/03/14 10:00:53;;;;;;;38.92;20.38;;;2.20;91.70;;;;;;5040478;28;20037;-77
2021/03/14 10:03:26;;;;;;;45.85;22.88;;;2.20;91.80;;;;;;5035951;28;20033;-78
2021/03/14 10:05:54;;;;;;;42.08;20.65;;;2.30;91.70;;;;;;5036103;28;20022;-78
2021/03/14 10:08:20;;;;;;;43.05;22.15;;;2.30;91.60;;;;;;5035554;28;20453;-78
2021/03/14 10:10:49;;;;;;;43.17;21.75;;;2.40;91.60;;;;;;5036100;28;20049;-80
2021/03/14 10:13:15;;;;;;;45.25;25.67;;;2.50;91.30;;;;;;5043001;28;20051;-78
2021/03/14 10:15:41;;;;;;;46.20;23.40;;;2.60;91.40;;;;;;5050589;28;20018;-77
2021/03/14 10:18:09;;;;;;;46.65;25.02;;;2.60;91.10;;;;;;5041301;28;20379;-79
2021/03/14 10:20:36;;;;;;;42.83;23.80;;;2.70;91.10;;;;;;5035539;28;20022;-79
2021/03/14 10:23:03;;;;;;;;;;;2.70;91.10;;;;;;5046523;28;20572;-77
2021/03/14 10:25:39;;;;;;;35.45;21.20;;;2.70;90.80;;;;;;5039328;28;19912;-78
2021/03/14 10:28:18;;;;;;;35.95;19.52;;;2.60;90.70;;;;;;5034666;28;20038;-79
2021/03/14 10:30:45;;;;;;;32.30;19.13;;;2.50;90.90;;;;;;5048641;28;20421;-78
2021/03/14 10:33:14;;;;;;;;;;;2.50;91.20;;;;;;5034185;28;20083;-78
2021/03/14 10:35:41;;;;;;;36.05;21.35;;;2.60;91.20;;;;;;5034300;28;19905;-79
2021/03/14 10:38:13;;;;;;;40.88;19.05;;;2.60;91.00;;;;;;5034726;28;20536;-78
2021/03/14 10:40:39;;;;;;;39.03;21.13;;;2.70;90.80;;;;;;5034547;28;20390;-78
2021/03/14 10:43:25;;;;;;;38.05;20.25;;;2.70;91.00;;;;;;5034808;28;20025;-78
2021/03/14 10:45:53;;;;;;;32.95;15.00;;;2.70;90.80;;;;;;5030459;28;20025;-79
2021/03/14 10:48:29;;;;;;;26.85;17.20;;;2.70;90.60;;;;;;5034704;28;20033;-79
2021/03/14 10:51:08;;;;;;;35.25;21.85;;;2.60;90.70;;;;;;5034605;28;20440;-79
2021/03/14 10:53:41;;;;;;;33.55;16.23;;;2.60;91.00;;;;;;5028794;28;20033;-83
2021/03/14 10:56:15;;;;;;;40.90;18.92;;;2.60;90.90;;;;;;5035859;28;20036;-83
2021/03/14 10:58:43;;;;;;;34.67;19.25;;;2.60;90.90;;;;;;5035191;28;20097;-80
2021/03/14 11:01:15;;;;;;;37.05;20.33;;;2.50;91.40;;;;;;5016241;28;20134;-85
2021/03/14 11:03:45;;;;;;;40.97;23.38;;;2.50;91.70;;;;;;5038982;28;20025;-86
2021/03/14 11:06:17;;;;;;;40.95;20.52;;;2.50;91.90;;;;;;5036672;28;20094;-85
2021/03/14 11:09:04;;;;;;;33.83;15.88;;;2.40;92.00;;;;;;5042703;28;20050;-88
2021/03/14 11:11:43;;;;;;;;;;;2.30;92.20;;;;;;5042694;28;20025;-83
2021/03/14 11:14:28;;;;;;;38.53;20.17;;;2.30;92.30;;;;;;5026248;28;20373;-81
2021/03/14 11:17:15;;;;;;;33.47;17.80;;;2.20;92.80;;;;;;5035561;28;20367;-84
2021/03/14 11:19:43;;;;;;;33.10;21.42;;;2.10;92.90;;;;;;5036021;28;20509;-84
2021/03/14 11:22:12;;;;;;;36.28;19.00;;;2.00;93.30;;;;;;5037970;28;20021;-88
2021/03/14 11:24:38;;;;;;;38.15;20.05;;;1.90;93.80;;;;;;5040094;28;20018;-86
2021/03/14 11:27:05;;;;;;;37.65;20.48;;;1.90;94.00;;;;;;5037628;28;20025;-86
2021/03/14 11:29:30;;;;;;;40.53;21.73;;;1.80;94.20;;;;;;5033491;28;20026;-85
2021/03/14 11:31:57;;;;;;;54.13;25.80;;;1.80;94.40;;;;;;5037218;28;20029;-84
2021/03/14 11:34:23;;;;;;;52.20;26.77;;;1.80;94.40;;;;;;5045103;28;20038;-87
2021/03/14 11:36:49;;;;;;;50.17;27.15;;;1.70;94.50;;;;;;5042845;28;20381;-86
2021/03/14 11:39:15;;;;;;;55.45;28.83;;;1.80;94.70;;;;;;5042247;28;20164;-84
2021/03/14 11:41:42;;;;;;;51.17;28.40;;;1.80;94.90;;;;;;5038631;28;20029;-85
2021/03/14 11:44:08;;;;;;;47.53;27.25;;;1.80;95.00;;;;;;5035995;28;20493;-85
2021/03/14 11:46:46;;;;;;;47.97;25.38;;;1.80;95.10;;;;;;5018284;28;20022;-86
2021/03/14 11:49:12;;;;;;;57.10;28.33;;;1.80;95.00;;;;;;5034598;28;20037;-85
2021/03/14 11:51:38;;;;;;;57.15;29.13;;;1.80;95.10;;;;;;5035966;28;20075;-86
2021/03/14 11:54:10;;;;;;;51.10;28.05;;;1.80;95.10;;;;;;5036303;28;20482;-85
2021/03/14 11:56:36;;;;;;;57.63;27.58;;;1.90;95.30;;;;;;5018222;28;20027;-86
2021/03/14 11:59:01;;;;;;;51.15;28.05;;;1.80;95.30;;;;;;5035491;28;20065;-84
2021/03/14 12:01:27;;;;;;;57.28;30.75;;;1.80;95.50;;;;;;5038305;28;20384;-85
2021/03/14 12:03:53;;;;;;;46.15;24.40;;;1.80;95.70;;;;;;5045647;28;20036;-85
2021/03/14 12:06:20;;;;;;;49.17;26.38;;;1.90;95.70;;;;;;5056942;28;20020;-85
2021/03/14 12:08:46;;;;;;;47.95;27.25;;;1.90;95.50;;;;;;5048880;28;20037;-83
2021/03/14 12:11:14;;;;;;;46.85;23.40;;;1.70;95.50;;;;;;5053881;28;20036;-84
2021/03/14 12:13:42;;;;;;;49.95;29.35;;;1.70;95.80;;;;;;5049751;28;20055;-83
2021/03/14 12:16:09;;;;;;;48.33;24.17;;;1.80;96.00;;;;;;5042000;28;20040;-84
2021/03/14 12:18:35;;;;;;;39.60;22.92;;;1.80;96.00;;;;;;5034527;28;20022;-83
2021/03/14 12:21:01;;;;;;;50.63;20.25;;;1.80;96.00;;;;;;5033727;28;20025;-84
2021/03/14 12:23:53;;;;;;;47.63;25.25;;;1.90;96.00;;;;;;5044504;28;20096;-89
2021/03/14 12:26:22;;;;;;;54.28;26.95;;;1.90;96.10;;;;;;5040992;28;20041;-85
2021/03/14 12:28:48;;;;;;;48.33;24.75;;;2.00;96.10;;;;;;5040975;28;20049;-83
2021/03/14 12:31:15;;;;;;;48.08;25.00;;;2.00;96.00;;;;;;5045061;28;20053;-84
2021/03/14 12:33:40;;;;;;;45.78;25.90;;;2.10;96.10;;;;;;5020619;28;20471;-83
2021/03/14 12:36:07;;;;;;;44.92;24.90;;;2.10;95.80;;;;;;5037103;28;20017;-84
2021/03/14 12:38:36;;;;;;;53.03;24.75;;;2.20;95.80;;;;;;5047149;28;20025;-82
2021/03/14 12:41:01;;;;;;;45.47;23.63;;;2.20;95.80;;;;;;5048464;28;20092;-82
2021/03/14 12:43:27;;;;;;;44.53;25.65;;;2.20;95.70;;;;;;5032219;28;20056;-82
2021/03/14 12:45:53;;;;;;;48.67;25.83;;;2.20;95.70;;;;;;5044027;28;20022;-83
2021/03/14 12:48:20;;;;;;;49.97;24.83;;;2.20;95.70;;;;;;5042297;28;20029;-81